Time;durP1;ratioP1;P1;durP2;ratioP2;P2;SDS_P1;SDS_P2;PMS_P1;PMS_P2;Temp;Humidity;BMP_temperature;BMP_pressure;BME280_temperature;BME280_humidity;BME280_pressure;Samples;Min_cycle;Max_cycle;Signal;HPM_P1;HPM_P2
2022/01/11 00:08:28;;;;;;;26.58;15.88;;;26.40;2201.60;;;;;;516800;26;20321;-78
2022/01/11 00:11:13;;;;;;;31.65;17.13;;;26.40;2201.60;;;;;;4965370;29;20073;-80
2022/01/11 00:13:41;;;;;;;27.73;17.67;;;26.40;2201.60;;;;;;4924879;29;20409;-77
2022/01/11 00:16:09;;;;;;;32.05;18.40;;;26.40;2201.60;;;;;;4952326;29;20030;-78
2022/01/11 00:18:36;;;;;;;31.33;18.27;;;26.40;2201.60;;;;;;4953309;29;20051;-78
2022/01/11 00:21:02;;;;;;;31.75;16.95;;;51.60;2227.20;;;;;;4930810;29;20533;-78
2022/01/11 00:25:55;;;;;;;33.63;17.70;;;26.40;2201.60;;;;;;4943034;29;20028;-76
2022/01/11 00:28:24;;;;;;;34.42;18.55;;;26.40;2201.60;;;;;;4944536;29;20439;-76
2022/01/11 00:30:51;;;;;;;35.65;17.55;;;26.40;2201.60;;;;;;4947706;29;20103;-76
2022/01/11 00:33:23;;;;;;;33.03;17.85;;;26.30;2201.60;;;;;;4926066;29;20035;-77
2022/01/11 00:35:58;;;;;;;29.35;16.80;;;26.40;2201.60;;;;;;4929350;29;20035;-77
2022/01/11 00:38:36;;;;;;;30.05;17.02;;;26.40;2201.60;;;;;;4933355;29;20051;-76
2022/01/11 00:41:12;;;;;;;27.77;15.52;;;26.30;2201.60;;;;;;4939957;29;20024;-77
2022/01/11 00:43:40;;;;;;;30.20;16.02;;;26.30;2201.60;;;;;;4950307;29;20031;-76
2022/01/11 00:46:27;;;;;;;31.95;17.25;;;26.30;2201.60;;;;;;4954415;29;20490;-80
2022/01/11 00:48:53;;;;;;;29.17;15.82;;;26.30;2201.60;;;;;;4935410;29;20027;-75
2022/01/11 00:51:19;;;;;;;24.17;15.98;;;26.30;2201.60;;;;;;4942328;29;20032;-76
2022/01/11 00:53:44;;;;;;;28.50;14.65;;;26.30;2201.60;;;;;;5043299;23;20023;-78
2022/01/11 00:56:10;;;;;;;30.23;13.35;;;26.30;2201.60;;;;;;4944426;28;20039;-75
2022/01/11 00:58:36;;;;;;;28.98;15.25;;;26.30;2201.60;;;;;;4969055;28;20063;-78
2022/01/11 01:01:06;;;;;;;31.42;16.13;;;26.40;2201.60;;;;;;4970687;28;20050;-78
2022/01/11 01:03:33;;;;;;;33.28;16.30;;;26.30;2201.60;;;;;;4960431;28;20046;-79
2022/01/11 01:05:58;;;;;;;27.35;15.20;;;26.40;2201.60;;;;;;4951261;28;20035;-78
2022/01/11 01:08:25;;;;;;;27.15;15.50;;;26.30;2201.60;;;;;;4968763;28;20428;-78
2022/01/11 01:10:51;;;;;;;31.08;15.90;;;26.30;2201.60;;;;;;4952585;28;20172;-79
2022/01/11 01:13:23;;;;;;;28.05;14.77;;;26.30;2201.60;;;;;;4963720;28;20034;-79
2022/01/11 01:15:53;;;;;;;25.38;14.65;;;26.30;2201.60;;;;;;4981487;28;20027;-78
2022/01/11 01:18:25;;;;;;;23.88;14.02;;;26.30;2201.60;;;;;;4966332;28;20105;-80
2022/01/11 01:20:54;;;;;;;28.17;14.02;;;26.30;2201.60;;;;;;4970193;28;20030;-81
2022/01/11 01:23:21;;;;;;;27.67;15.23;;;26.30;2201.60;;;;;;4961628;28;20191;-79
2022/01/11 01:25:48;;;;;;;26.42;15.45;;;51.70;2227.20;;;;;;4964662;28;20026;-78
2022/01/11 01:28:15;;;;;;;27.90;14.90;;;26.30;2201.60;;;;;;4960560;28;20053;-78
2022/01/11 01:30:41;;;;;;;27.58;14.55;;;26.30;2201.60;;;;;;4970771;28;20097;-79
2022/01/11 01:33:07;;;;;;;26.73;14.20;;;26.30;2201.60;;;;;;4960280;29;20027;-79
2022/01/11 01:35:42;;;;;;;25.33;13.43;;;26.30;2201.60;;;;;;4952948;29;20379;-77
2022/01/11 01:38:09;;;;;;;23.10;13.48;;;26.30;2201.60;;;;;;4956941;28;20030;-78
2022/01/11 01:40:40;;;;;;;24.45;14.00;;;26.30;2201.60;;;;;;4954539;28;20027;-77
2022/01/11 01:43:12;;;;;;;27.58;13.40;;;26.30;2201.60;;;;;;4967673;28;20034;-78
2022/01/11 01:45:39;;;;;;;25.35;13.77;;;26.20;2201.60;;;;;;4949722;28;20427;-78
2022/01/11 01:48:07;;;;;;;28.27;14.30;;;26.20;2201.60;;;;;;4957780;28;20069;-78
2022/01/11 01:50:34;;;;;;;30.42;15.35;;;26.20;2201.60;;;;;;4988533;28;20046;-77
2022/01/11 01:53:03;;;;;;;25.85;14.90;;;26.20;2201.60;;;;;;4967453;28;20106;-77
2022/01/11 01:55:34;;;;;;;24.50;13.45;;;26.20;2201.60;;;;;;4951678;28;20047;-79
2022/01/11 01:58:05;;;;;;;25.10;13.50;;;26.20;2201.60;;;;;;4980695;28;20033;-79
2022/01/11 02:00:39;;;;;;;20.83;12.50;;;26.10;2201.60;;;;;;4981741;28;20035;-79
2022/01/11 02:03:10;;;;;;;27.35;14.63;;;26.00;2201.60;;;;;;4964829;28;20034;-78
2022/01/11 02:05:36;;;;;;;23.25;12.88;;;26.10;2201.60;;;;;;4966381;28;20038;-79
2022/01/11 02:08:05;;;;;;;26.85;13.57;;;26.00;2201.60;;;;;;4963619;28;20053;-78
2022/01/11 02:10:34;;;;;;;26.92;14.57;;;26.00;2201.60;;;;;;4974690;28;20047;-78
2022/01/11 02:13:01;;;;;;;26.48;13.60;;;26.00;2201.60;;;;;;4948366;28;20031;-78
2022/01/11 02:15:27;;;;;;;30.42;15.60;;;26.10;2201.60;;;;;;4966477;28;20043;-80
2022/01/11 02:17:53;;;;;;;26.85;14.23;;;26.00;2201.60;;;;;;4968666;28;20031;-77
2022/01/11 02:20:19;;;;;;;24.42;13.02;;;26.00;2201.60;;;;;;4961212;28;20023;-77
2022/01/11 02:22:45;;;;;;;22.40;12.70;;;25.90;2201.60;;;;;;4965507;29;20130;-78
2022/01/11 02:25:11;;;;;;;22.73;13.52;;;25.90;2201.60;;;;;;4948179;28;20039;-78
2022/01/11 02:27:38;;;;;;;25.17;14.38;;;25.90;2201.60;;;;;;4968591;29;20023;-79
2022/01/11 02:30:05;;;;;;;30.38;14.63;;;25.90;2201.60;;;;;;4995717;28;20029;-78
2022/01/11 02:32:32;;;;;;;23.02;12.88;;;25.90;2201.60;;;;;;4983600;28;20509;-78
2022/01/11 02:34:58;;;;;;;24.88;14.05;;;25.80;2201.60;;;;;;4984810;28;20042;-77
2022/01/11 02:37:24;;;;;;;27.10;14.65;;;25.80;2201.60;;;;;;4981531;28;20061;-77
2022/01/11 02:39:49;;;;;;;23.48;12.40;;;25.80;2201.60;;;;;;4982570;28;20034;-77
2022/01/11 02:42:15;;;;;;;29.20;14.68;;;25.80;2201.60;;;;;;4981546;28;20088;-77
2022/01/11 02:44:41;;;;;;;25.27;15.05;;;25.80;2201.60;;;;;;4982690;28;20026;-77
2022/01/11 02:47:07;;;;;;;23.58;12.70;;;25.70;2201.60;;;;;;4998827;28;20033;-77
2022/01/11 02:49:32;;;;;;;26.75;15.02;;;25.70;2201.60;;;;;;4982011;28;20038;-78
2022/01/11 02:52:02;;;;;;;19.17;11.73;;;25.70;2201.60;;;;;;4991567;28;20422;-79
2022/01/11 02:54:28;;;;;;;26.38;13.98;;;25.60;2201.60;;;;;;4953353;28;20047;-78
2022/01/11 02:56:54;;;;;;;26.48;14.38;;;25.60;2201.60;;;;;;4967144;28;20037;-78
2022/01/11 02:59:19;;;;;;;22.38;12.27;;;25.60;2201.60;;;;;;4964093;28;20039;-78
2022/01/11 03:01:45;;;;;;;23.85;13.57;;;25.60;2201.60;;;;;;4950737;28;20094;-77
2022/01/11 03:04:11;;;;;;;21.48;12.20;;;25.60;2201.60;;;;;;4970851;28;20035;-80
2022/01/11 03:06:38;;;;;;;24.88;13.10;;;25.60;2201.60;;;;;;4981311;28;20034;-77
2022/01/11 03:09:04;;;;;;;22.77;12.77;;;25.60;2201.60;;;;;;4972147;28;20035;-77
2022/01/11 03:11:32;;;;;;;25.58;13.43;;;25.60;2201.60;;;;;;4958667;28;20058;-78
2022/01/11 03:14:00;;;;;;;26.63;13.60;;;25.60;2201.60;;;;;;4967933;28;20101;-78
2022/01/11 03:16:28;;;;;;;27.52;13.00;;;25.60;2201.60;;;;;;4979673;28;20027;-78
2022/01/11 03:18:53;;;;;;;27.35;13.32;;;25.60;2201.60;;;;;;4974184;28;20026;-78
2022/01/11 03:21:19;;;;;;;24.15;13.55;;;0.90;2201.60;;;;;;4974516;28;20019;-79
2022/01/11 03:23:48;;;;;;;28.42;12.70;;;0.90;2201.60;;;;;;4968249;28;20027;-80
2022/01/11 03:26:15;;;;;;;22.77;13.45;;;0.90;2201.60;;;;;;4949673;28;20131;-80
2022/01/11 03:28:42;;;;;;;27.10;14.52;;;0.90;2201.60;;;;;;4914535;29;20098;-80
2022/01/11 03:31:08;;;;;;;23.65;12.02;;;25.60;2201.60;;;;;;4945502;29;20099;-79
2022/01/11 03:33:35;;;;;;;21.80;12.82;;;25.60;2201.60;;;;;;4945058;29;20106;-79
2022/01/11 03:36:02;;;;;;;25.98;13.32;;;25.60;2201.60;;;;;;4959964;29;20071;-79
2022/01/11 03:38:30;;;;;;;22.75;13.48;;;0.90;2201.60;;;;;;4939438;29;20044;-78
2022/01/11 03:40:55;;;;;;;26.20;13.77;;;0.90;2201.60;;;;;;4948178;29;20095;-78
2022/01/11 03:43:22;;;;;;;24.40;13.40;;;0.90;2201.60;;;;;;4951142;29;20115;-80
2022/01/11 03:45:51;;;;;;;25.85;13.77;;;0.90;2201.60;;;;;;4953974;29;20099;-80
2022/01/11 03:48:18;;;;;;;21.45;12.40;;;0.90;2201.60;;;;;;4976081;28;20035;-80
2022/01/11 03:50:52;;;;;;;23.73;13.77;;;0.90;2201.60;;;;;;4958255;29;20064;-79
2022/01/11 03:53:24;;;;;;;25.50;12.32;;;0.90;2201.60;;;;;;4947278;29;20024;-80
2022/01/11 03:58:23;;;;;;;27.48;13.13;;;0.90;2201.60;;;;;;4960067;29;20039;-80
2022/01/11 04:00:50;;;;;;;26.23;12.15;;;0.90;2201.60;;;;;;4966006;28;20026;-80
2022/01/11 04:03:16;;;;;;;22.30;11.82;;;0.80;2201.60;;;;;;4961355;28;20023;-78
2022/01/11 04:05:44;;;;;;;23.63;12.90;;;0.80;2201.60;;;;;;4977236;28;20117;-78
2022/01/11 04:08:10;;;;;;;23.83;12.15;;;0.80;2201.60;;;;;;4961373;28;20027;-78
2022/01/11 04:10:37;;;;;;;26.13;14.00;;;0.80;2201.60;;;;;;4965393;28;20028;-78
2022/01/11 04:13:03;;;;;;;25.15;13.77;;;0.80;2201.60;;;;;;4940851;29;20027;-79
2022/01/11 04:15:29;;;;;;;24.70;13.25;;;0.80;2201.60;;;;;;4957735;29;20039;-80
2022/01/11 04:17:55;;;;;;;26.13;14.13;;;0.80;2201.60;;;;;;4955690;29;20023;-79
2022/01/11 04:20:22;;;;;;;24.25;13.85;;;0.80;2201.60;;;;;;4957199;29;20049;-78
2022/01/11 04:22:49;;;;;;;24.02;13.50;;;0.80;2201.60;;;;;;4952144;28;20759;-78
2022/01/11 04:25:16;;;;;;;25.98;14.82;;;0.80;2201.60;;;;;;4977318;28;20052;-79
2022/01/11 04:27:42;;;;;;;28.42;14.57;;;0.90;2201.60;;;;;;4958698;28;20402;-79
2022/01/11 04:30:08;;;;;;;23.35;13.68;;;0.90;2201.60;;;;;;4959121;28;20088;-79
2022/01/11 04:32:35;;;;;;;28.88;14.48;;;0.90;2201.60;;;;;;4980553;28;20023;-80
2022/01/11 04:35:01;;;;;;;23.02;13.52;;;0.90;2201.60;;;;;;4939073;29;20413;-79
2022/01/11 04:37:27;;;;;;;21.90;12.95;;;0.90;2201.60;;;;;;4974132;28;20070;-79
2022/01/11 04:39:52;;;;;;;25.17;13.38;;;0.90;2201.60;;;;;;4995521;28;20086;-79
2022/01/11 04:42:18;;;;;;;29.08;14.07;;;0.90;2201.60;;;;;;4969013;28;20086;-79
2022/01/11 04:44:44;;;;;;;25.25;12.68;;;0.90;2201.60;;;;;;4957559;28;20023;-79
2022/01/11 04:47:10;;;;;;;25.67;13.48;;;0.90;2201.60;;;;;;4959369;28;20059;-78
2022/01/11 04:49:37;;;;;;;22.02;13.88;;;0.80;2201.60;;;;;;4959604;28;20405;-79
2022/01/11 04:52:03;;;;;;;23.20;12.30;;;0.80;2201.60;;;;;;4977823;28;20022;-79
2022/01/11 04:54:29;;;;;;;24.25;13.30;;;0.80;2201.60;;;;;;4958655;28;20039;-79
2022/01/11 04:56:57;;;;;;;26.30;13.52;;;0.90;2201.60;;;;;;4957875;28;20034;-78
2022/01/11 04:59:24;;;;;;;26.65;14.18;;;0.90;2201.60;;;;;;4960133;28;20038;-79
2022/01/11 05:01:50;;;;;;;25.92;12.73;;;0.90;2201.60;;;;;;4958556;28;20031;-79
2022/01/11 05:04:16;;;;;;;27.27;13.27;;;0.90;2201.60;;;;;;4960919;28;20372;-79
2022/01/11 05:06:42;;;;;;;31.38;15.30;;;0.90;2201.60;;;;;;4958444;28;20082;-79
2022/01/11 05:09:08;;;;;;;26.00;13.60;;;0.90;2201.60;;;;;;4971760;28;20034;-79
2022/01/11 05:11:39;;;;;;;22.25;11.63;;;0.90;2201.60;;;;;;4979244;28;20109;-79
2022/01/11 05:14:07;;;;;;;27.02;12.13;;;0.80;2201.60;;;;;;4977831;28;20102;-79
2022/01/11 05:16:34;;;;;;;28.33;13.35;;;0.80;2201.60;;;;;;4960555;28;20043;-79
2022/01/11 05:19:00;;;;;;;22.98;11.93;;;0.80;2201.60;;;;;;4964311;28;20035;-79
2022/01/11 05:21:26;;;;;;;28.73;12.55;;;0.80;2201.60;;;;;;4957893;29;20038;-79
2022/01/11 05:23:52;;;;;;;27.10;12.32;;;0.80;2201.60;;;;;;4971676;28;20031;-79
2022/01/11 05:26:18;;;;;;;24.50;14.93;;;0.80;2201.60;;;;;;4955207;29;20039;-79
2022/01/11 05:28:43;;;;;;;25.15;12.35;;;0.70;2201.60;;;;;;4957568;29;20023;-79
2022/01/11 05:31:10;;;;;;;21.25;11.80;;;0.70;2201.60;;;;;;4957089;29;20054;-79
2022/01/11 05:33:37;;;;;;;22.70;12.85;;;0.80;2201.60;;;;;;4939602;29;20029;-78
2022/01/11 05:36:06;;;;;;;25.92;13.35;;;0.80;2201.60;;;;;;4961058;29;20035;-79
2022/01/11 05:38:33;;;;;;;21.48;10.90;;;0.70;2201.60;;;;;;4948581;29;20123;-79
2022/01/11 05:44:38;;;;;;;23.60;12.90;;;0.80;2201.60;;;;;;4901257;29;20032;-80
2022/01/11 05:47:05;;;;;;;27.08;14.73;;;0.70;2201.60;;;;;;4883398;29;20048;-79
2022/01/11 05:49:31;;;;;;;21.65;11.38;;;0.70;2201.60;;;;;;4884931;29;20040;-79
2022/01/11 05:51:57;;;;;;;22.25;11.38;;;0.70;2201.60;;;;;;4883611;29;20077;-79
2022/01/11 05:54:22;;;;;;;26.10;13.60;;;0.70;2201.60;;;;;;4866587;29;20169;-79
2022/01/11 05:56:50;;;;;;;22.15;12.75;;;0.70;2201.60;;;;;;4866916;29;20036;-79
2022/01/11 05:59:16;;;;;;;21.90;12.43;;;0.70;2201.60;;;;;;4867104;29;20755;-78
2022/01/11 06:01:42;;;;;;;20.48;10.63;;;0.70;2201.60;;;;;;4887712;29;20032;-78
2022/01/11 06:04:07;;;;;;;21.95;13.02;;;0.70;2201.60;;;;;;4888399;29;20568;-79
2022/01/11 06:06:56;;;;;;;24.33;11.88;;;0.70;2201.60;;;;;;4897890;29;20048;-80
2022/01/11 06:09:32;;;;;;;23.42;11.90;;;0.70;2201.60;;;;;;4895887;29;20117;-80
2022/01/11 06:12:39;;;;;;;19.40;11.32;;;0.70;2201.60;;;;;;4917557;29;20049;-80
2022/01/11 06:15:53;;;;;;;20.05;10.43;;;0.70;2201.60;;;;;;4793361;30;20054;-80
2022/01/11 06:18:58;;;;;;;19.23;9.35;;;0.70;2201.60;;;;;;4673736;30;20122;-80
2022/01/11 06:21:27;;;;;;;18.80;11.18;;;0.70;2201.60;;;;;;4676696;30;20569;-80
2022/01/11 06:24:28;;;;;;;21.50;10.82;;;0.60;2201.60;;;;;;4688680;30;20116;-80
2022/01/11 06:26:58;;;;;;;19.38;10.70;;;0.60;2201.60;;;;;;4698088;30;20039;-80
2022/01/11 06:29:37;;;;;;;23.70;11.55;;;0.60;2201.60;;;;;;4678522;30;20050;-80
2022/01/11 06:32:03;;;;;;;17.33;10.20;;;0.70;2201.60;;;;;;4682676;30;20090;-80
2022/01/11 06:34:32;;;;;;;20.20;10.57;;;0.70;2201.60;;;;;;4682732;30;20081;-80
2022/01/11 06:37:07;;;;;;;20.85;11.73;;;0.70;2201.60;;;;;;4677760;30;20050;-80
2022/01/11 06:39:36;;;;;;;25.25;11.55;;;0.70;2201.60;;;;;;4679952;30;20046;-80
2022/01/11 06:42:05;;;;;;;18.80;10.93;;;0.70;2201.60;;;;;;4696827;30;20195;-80
2022/01/11 06:44:35;;;;;;;22.98;11.35;;;0.70;2201.60;;;;;;4731640;30;20461;-79
2022/01/11 06:47:06;;;;;;;20.02;10.20;;;0.70;2201.60;;;;;;4732222;30;20140;-80
2022/01/11 06:49:32;;;;;;;26.35;10.70;;;0.70;2201.60;;;;;;4729257;30;20055;-80
2022/01/11 06:52:02;;;;;;;16.73;9.15;;;0.70;2201.60;;;;;;4769394;29;20047;-79
2022/01/11 06:54:28;;;;;;;17.13;10.38;;;0.70;2201.60;;;;;;4822157;28;20072;-80
2022/01/11 06:56:57;;;;;;;19.23;11.20;;;0.80;2201.60;;;;;;4993110;28;20477;-79
2022/01/11 06:59:30;;;;;;;19.95;9.63;;;0.80;2201.60;;;;;;4974362;28;20513;-80
2022/01/11 07:01:57;;;;;;;19.15;10.10;;;0.70;2201.60;;;;;;4980713;28;20022;-78
2022/01/11 07:04:22;;;;;;;20.88;10.98;;;0.80;2201.60;;;;;;4965433;28;20876;-79
2022/01/11 07:06:48;;;;;;;17.70;10.57;;;0.80;2201.60;;;;;;4988703;28;20062;-78
2022/01/11 07:09:14;;;;;;;16.48;10.25;;;0.80;2201.60;;;;;;4990816;28;20027;-78
2022/01/11 07:11:40;;;;;;;21.95;9.90;;;0.80;2201.60;;;;;;4983811;28;20026;-79
2022/01/11 07:14:07;;;;;;;15.50;9.10;;;0.90;2201.60;;;;;;4988905;28;20047;-79
2022/01/11 07:16:48;;;;;;;17.65;8.45;;;0.80;2201.60;;;;;;4990476;28;20034;-80
2022/01/11 07:19:43;;;;;;;18.20;10.38;;;0.80;2201.60;;;;;;4991311;28;20099;-80
2022/01/11 07:22:47;;;;;;;15.98;8.77;;;0.80;2201.60;;;;;;4895068;29;20057;-80
2022/01/11 07:25:54;;;;;;;16.98;10.25;;;0.80;2201.60;;;;;;4922056;29;20535;-80
2022/01/11 07:28:50;;;;;;;22.00;11.50;;;0.80;2201.60;;;;;;4922994;29;20193;-80
2022/01/11 07:31:16;;;;;;;19.27;11.43;;;0.80;2201.60;;;;;;4898391;29;20032;-79
2022/01/11 07:33:42;;;;;;;23.00;11.82;;;0.70;2201.60;;;;;;4908979;29;20047;-79
2022/01/11 07:36:10;;;;;;;25.42;11.98;;;0.70;2201.60;;;;;;4911422;29;20035;-79
2022/01/11 07:38:41;;;;;;;21.75;11.07;;;0.60;2201.60;;;;;;4907093;29;20036;-80
2022/01/11 07:41:07;;;;;;;23.90;12.27;;;0.60;2201.60;;;;;;4894191;29;20045;-79
2022/01/11 07:43:33;;;;;;;21.50;12.32;;;0.60;2201.60;;;;;;4892231;29;20058;-79
2022/01/11 07:46:03;;;;;;;19.55;10.35;;;0.60;2201.60;;;;;;4922477;29;20047;-79
2022/01/11 07:48:32;;;;;;;25.30;14.18;;;0.60;2201.60;;;;;;4928645;29;20024;-80
2022/01/11 07:50:58;;;;;;;21.13;11.02;;;0.60;2201.60;;;;;;4922124;29;20044;-78
2022/01/11 07:53:25;;;;;;;20.45;11.82;;;0.50;2201.60;;;;;;4918395;29;20042;-78
2022/01/11 07:55:50;;;;;;;22.08;12.20;;;0.60;2201.60;;;;;;4902913;29;20060;-78
2022/01/11 07:58:16;;;;;;;24.30;12.77;;;0.60;2201.60;;;;;;4919964;28;20039;-79
2022/01/11 08:00:42;;;;;;;26.67;13.20;;;0.60;2201.60;;;;;;4972787;28;20027;-79
2022/01/11 08:03:08;;;;;;;25.27;13.23;;;0.60;2201.60;;;;;;4992825;28;20038;-78
2022/01/11 08:05:34;;;;;;;23.27;13.35;;;0.60;2201.60;;;;;;4985314;28;20019;-79
2022/01/11 08:08:02;;;;;;;25.02;13.18;;;0.60;2150.40;;;;;;4988914;28;20029;-79
2022/01/11 08:10:32;;;;;;;24.85;13.18;;;0.60;2201.60;;;;;;4971166;28;20125;-79
2022/01/11 08:13:02;;;;;;;22.48;14.05;;;0.60;2099.20;;;;;;4969411;28;20390;-79
2022/01/11 08:15:28;;;;;;;29.15;14.52;;;0.60;1971.20;;;;;;4985702;28;20069;-79
2022/01/11 08:17:54;;;;;;;27.40;13.65;;;0.70;1920.00;;;;;;4967541;28;20034;-79
2022/01/11 08:20:20;;;;;;;25.05;12.63;;;0.70;1894.40;;;;;;4973994;28;20453;-78
2022/01/11 08:22:51;;;;;;;28.10;15.57;;;0.70;1817.60;;;;;;4976940;28;20034;-79
2022/01/11 08:25:17;;;;;;;19.23;10.98;;;0.70;2201.60;;;;;;4993695;28;20029;-79
2022/01/11 08:27:45;;;;;;;34.15;16.73;;;0.60;2201.60;;;;;;4977041;28;20026;-80
2022/01/11 08:30:12;;;;;;;23.02;12.13;;;0.70;2201.60;;;;;;4982741;28;20037;-80
2022/01/11 08:32:38;;;;;;;27.33;13.23;;;0.70;2201.60;;;;;;4977888;28;20030;-79
2022/01/11 08:35:06;;;;;;;25.60;14.48;;;0.90;2201.60;;;;;;4974554;28;20026;-79
2022/01/11 08:37:32;;;;;;;24.88;11.98;;;0.80;2201.60;;;;;;4998400;28;20023;-79
2022/01/11 08:39:58;;;;;;;26.17;12.73;;;0.80;2201.60;;;;;;4970288;28;20089;-79
2022/01/11 08:42:29;;;;;;;19.80;11.32;;;0.80;2201.60;;;;;;4977499;28;20486;-80
2022/01/11 08:44:56;;;;;;;22.60;12.63;;;0.80;2201.60;;;;;;4983385;28;20038;-79
2022/01/11 08:47:30;;;;;;;19.48;11.85;;;0.80;2201.60;;;;;;5029744;23;20069;-80
2022/01/11 08:49:57;;;;;;;22.13;14.10;;;0.80;2201.60;;;;;;4987111;28;20049;-78
2022/01/11 08:52:23;;;;;;;22.80;13.15;;;0.90;2201.60;;;;;;5001627;28;20555;-79
2022/01/11 08:54:49;;;;;;;22.77;13.25;;;0.90;2201.60;;;;;;4981106;28;20050;-79
2022/01/11 08:58:08;;;;;;;20.75;11.63;;;0.90;2201.60;;;;;;5002851;28;20031;-81
2022/01/11 09:07:27;;;;;;;21.75;11.80;;;25.60;2201.60;;;;;;5619023;23;20063;-80
2022/01/11 09:10:09;;;;;;;24.23;13.25;;;25.60;2201.60;;;;;;4966571;29;20046;-80
2022/01/11 09:12:56;;;;;;;23.48;11.68;;;25.60;2201.60;;;;;;4962221;29;20113;-81
2022/01/11 09:15:50;;;;;;;24.42;13.27;;;0.90;2201.60;;;;;;4963537;29;20036;-80
2022/01/11 09:21:12;;;;;;;26.98;13.80;;;25.90;2201.60;;;;;;4920923;29;20043;-80
2022/01/11 09:24:30;;;;;;;21.52;12.43;;;0.80;2201.60;;;;;;4944749;29;20028;-81
2022/01/11 09:34:19;;;;;;;27.88;13.45;;;0.90;2201.60;;;;;;4847534;29;20049;-81
2022/01/11 09:36:47;;;;;;;24.65;13.68;;;0.70;2201.60;;;;;;4835721;29;20095;-80
2022/01/11 09:40:15;;;;;;;27.77;12.70;;;0.90;2073.60;;;;;;4858863;29;20069;-81
2022/01/11 09:43:37;;;;;;;24.88;12.73;;;0.90;2201.60;;;;;;4749142;30;20036;-80
2022/01/11 09:46:15;;;;;;;25.02;15.13;;;0.90;2048.00;;;;;;4749391;30;20123;-80
2022/01/11 09:49:08;;;;;;;23.02;13.45;;;25.60;2048.00;;;;;;4752426;30;20025;-82
2022/01/11 09:51:45;;;;;;;21.52;12.02;;;0.90;2022.40;;;;;;4737863;30;20037;-79
2022/01/11 09:54:13;;;;;;;133.07;62.20;;;25.60;2201.60;;;;;;4745468;30;20047;-81
2022/01/11 09:56:48;;;;;;;27.05;12.50;;;0.90;2201.60;;;;;;4730747;30;20128;-79
2022/01/11 09:59:15;;;;;;;23.63;13.35;;;0.90;2099.20;;;;;;4745087;30;20045;-80
2022/01/11 10:01:41;;;;;;;24.30;13.00;;;25.60;2201.60;;;;;;4767329;30;20066;-81
2022/01/11 10:04:13;;;;;;;21.42;11.93;;;0.90;2201.60;;;;;;4788754;29;20050;-80
2022/01/11 10:06:42;;;;;;;26.98;14.07;;;25.60;2022.40;;;;;;4811249;29;20157;-79
2022/01/11 10:09:18;;;;;;;25.27;12.63;;;25.60;2201.60;;;;;;4827004;29;20044;-79
2022/01/11 10:11:47;;;;;;;25.88;12.50;;;0.90;2176.00;;;;;;4827840;29;20030;-79
2022/01/11 10:14:21;;;;;;;27.48;12.98;;;0.90;2150.40;;;;;;4859122;29;20120;-78
2022/01/11 10:16:47;;;;;;;21.40;10.10;;;0.80;2150.40;;;;;;4896060;29;20039;-80
2022/01/11 10:19:21;;;;;;;18.05;11.25;;;0.80;2201.60;;;;;;4951449;29;20424;-80
2022/01/11 10:21:49;;;;;;;21.00;13.85;;;0.70;2201.60;;;;;;4943984;29;20035;-78
2022/01/11 10:24:26;;;;;;;21.92;11.13;;;0.70;2201.60;;;;;;4938530;29;20023;-78
2022/01/11 10:26:54;;;;;;;25.00;13.23;;;0.70;2201.60;;;;;;4939422;29;20028;-78
2022/01/11 10:29:41;;;;;;;18.58;10.85;;;0.80;2201.60;;;;;;4932727;29;20039;-77
2022/01/11 10:32:13;;;;;;;25.15;11.57;;;0.80;2201.60;;;;;;4933627;29;20058;-77
2022/01/11 10:34:40;;;;;;;24.02;11.90;;;0.80;2201.60;;;;;;4949689;29;20101;-78
2022/01/11 10:37:06;;;;;;;19.13;10.77;;;0.80;2201.60;;;;;;4951161;28;20008;-77
2022/01/11 10:39:36;;;;;;;21.13;11.55;;;0.80;2201.60;;;;;;4964172;29;20032;-79
2022/01/11 10:42:03;;;;;;;17.63;10.48;;;0.80;2201.60;;;;;;4947776;29;20040;-79
2022/01/11 10:44:59;;;;;;;19.27;10.57;;;0.80;2022.40;;;;;;4947728;29;20031;-78
2022/01/11 10:47:47;;;;;;;30.38;11.88;;;0.80;2201.60;;;;;;4960406;28;20039;-78
2022/01/11 10:50:15;;;;;;;19.27;11.65;;;0.90;2201.60;;;;;;4958255;29;20043;-79
2022/01/11 10:52:42;;;;;;;23.48;12.05;;;0.90;2201.60;;;;;;4935235;29;20486;-78
2022/01/11 10:55:12;;;;;;;21.27;11.40;;;0.90;2150.40;;;;;;4945765;29;20028;-79
2022/01/11 10:57:38;;;;;;;21.58;10.50;;;0.90;2201.60;;;;;;4938215;29;20023;-79
2022/01/11 11:00:07;;;;;;;24.45;11.40;;;0.90;2201.60;;;;;;4938302;29;20034;-79
2022/01/11 11:02:33;;;;;;;24.67;11.18;;;0.90;2201.60;;;;;;4955141;28;20069;-79
2022/01/11 11:05:00;;;;;;;18.73;10.45;;;0.80;2201.60;;;;;;4939374;29;20072;-78
2022/01/11 11:07:27;;;;;;;19.92;11.07;;;0.90;2201.60;;;;;;4958872;28;20105;-78
2022/01/11 11:09:54;;;;;;;24.23;11.40;;;0.80;2201.60;;;;;;4963519;28;20069;-78
2022/01/11 11:12:23;;;;;;;28.35;15.05;;;0.80;2201.60;;;;;;4979530;28;20506;-79
2022/01/11 11:14:57;;;;;;;26.77;15.52;;;0.90;2201.60;;;;;;4950995;28;20046;-79
2022/01/11 11:17:28;;;;;;;22.20;13.23;;;25.60;2022.40;;;;;;4952184;28;20387;-78
2022/01/11 11:19:59;;;;;;;21.30;12.98;;;0.90;2201.60;;;;;;4967663;28;20479;-77
2022/01/11 11:22:27;;;;;;;22.27;12.68;;;0.90;2048.00;;;;;;4959796;28;20502;-77
2022/01/11 11:24:53;;;;;;;15.20;11.05;;;0.90;2048.00;;;;;;4945067;28;20065;-76
2022/01/11 11:27:21;;;;;;;23.98;12.75;;;0.90;2099.20;;;;;;4972579;28;20042;-76
2022/01/11 11:29:48;;;;;;;20.70;12.77;;;0.90;2201.60;;;;;;4955398;28;20034;-76
2022/01/11 11:32:19;;;;;;;24.23;13.73;;;0.90;1817.60;;;;;;4972988;28;20684;-76
2022/01/11 11:34:49;;;;;;;24.35;11.32;;;25.60;1894.40;;;;;;4971890;28;20402;-76
2022/01/11 11:37:37;;;;;;;18.80;11.95;;;25.70;2201.60;;;;;;4951819;28;20022;-80
2022/01/11 11:40:07;;;;;;;22.08;10.52;;;25.90;2201.60;;;;;;4951414;28;20074;-77
2022/01/11 11:42:34;;;;;;;18.90;9.50;;;25.80;2201.60;;;;;;4962311;28;20035;-77
2022/01/11 11:45:00;;;;;;;20.27;11.80;;;25.70;2201.60;;;;;;4967090;28;20077;-77
2022/01/11 11:47:35;;;;;;;20.15;12.25;;;25.70;2201.60;;;;;;4951109;28;20035;-77
2022/01/11 11:50:04;;;;;;;23.42;13.05;;;25.80;2201.60;;;;;;4947084;28;20398;-76
2022/01/11 11:52:39;;;;;;;21.02;13.25;;;25.80;2201.60;;;;;;4952404;28;20033;-76
2022/01/11 11:55:30;;;;;;;25.17;11.70;;;25.80;2201.60;;;;;;4953430;28;20046;-75
2022/01/11 11:58:05;;;;;;;18.98;10.77;;;25.80;2201.60;;;;;;4964618;28;20062;-76
2022/01/11 12:00:35;;;;;;;19.35;10.85;;;25.80;2201.60;;;;;;4950629;28;20042;-76
2022/01/11 12:03:19;;;;;;;24.52;12.73;;;25.80;2201.60;;;;;;4947545;28;20434;-77
2022/01/11 12:05:47;;;;;;;24.58;13.75;;;25.80;2201.60;;;;;;4965899;28;20545;-76
2022/01/11 12:08:36;;;;;;;22.67;13.20;;;26.10;2201.60;;;;;;4952253;28;20094;-75
2022/01/11 12:11:12;;;;;;;19.40;11.90;;;26.10;2201.60;;;;;;4966780;28;20114;-75
2022/01/11 12:13:37;;;;;;;19.50;11.00;;;26.10;2201.60;;;;;;4954059;28;20022;-75
2022/01/11 12:16:04;;;;;;;21.45;11.77;;;26.10;2201.60;;;;;;4971446;28;20090;-76
2022/01/11 12:18:42;;;;;;;25.00;12.65;;;26.20;2201.60;;;;;;4955700;28;20055;-76
2022/01/11 12:21:10;;;;;;;22.80;12.20;;;26.10;2201.60;;;;;;4946138;29;20063;-77
2022/01/11 12:23:36;;;;;;;22.27;11.68;;;26.10;2201.60;;;;;;4961224;28;20035;-75
2022/01/11 12:26:19;;;;;;;24.13;13.70;;;26.10;2201.60;;;;;;4949177;29;20081;-76
2022/01/11 12:29:04;;;;;;;26.45;14.50;;;26.10;2201.60;;;;;;4968124;28;20449;-75
2022/01/11 12:31:36;;;;;;;26.75;13.80;;;26.10;2201.60;;;;;;4957924;29;20058;-75
2022/01/11 12:34:06;;;;;;;28.55;15.90;;;26.10;2201.60;;;;;;4958249;29;20114;-76
2022/01/11 12:36:52;;;;;;;28.48;17.63;;;26.10;2201.60;;;;;;4975733;28;20019;-76
2022/01/11 12:39:19;;;;;;;37.75;17.30;;;26.00;2201.60;;;;;;4959529;28;20019;-76
2022/01/11 12:41:46;;;;;;;29.38;14.48;;;25.90;2201.60;;;;;;4948260;28;20051;-76
2022/01/11 12:44:23;;;;;;;38.30;19.75;;;25.80;2201.60;;;;;;4973240;28;20023;-77
2022/01/11 12:46:55;;;;;;;45.72;22.73;;;25.80;2201.60;;;;;;4969761;28;20031;-77
2022/01/11 12:49:22;;;;;;;34.45;18.98;;;25.80;2201.60;;;;;;4976940;28;20028;-77
2022/01/11 12:51:54;;;;;;;31.15;16.27;;;25.90;2201.60;;;;;;4959459;28;20027;-77
2022/01/11 12:54:28;;;;;;;54.65;26.70;;;25.80;2201.60;;;;;;4974876;28;20188;-76
2022/01/11 12:56:57;;;;;;;52.10;26.63;;;25.80;2201.60;;;;;;4967339;28;20015;-75
2022/01/11 12:59:26;;;;;;;36.83;16.60;;;25.90;2201.60;;;;;;4973240;28;20398;-76
2022/01/11 13:02:08;;;;;;;24.80;16.45;;;25.80;2201.60;;;;;;4976481;28;20029;-76
2022/01/11 13:04:42;;;;;;;24.48;13.35;;;25.80;2201.60;;;;;;4958932;28;20448;-75